KFWA

Fort Wayne International Airport

Fort Wayne, Indiana, USA
METAR KFWA 151254Z 24010KT 10SM OVC033 M04/M08 A2995 RMK AO2 SLP153 T10441078
Observed Flight Rules
Dec-15 @ 12:54 UTC (an hour ago) Visual Flight Rules
Wind Visibility Clouds
240° at 10 knots 10 miles
  • Overcast at 3,300' AGL
Temperatures Readings
Current -4°C / 25°F
Dewpoint -8°C / 18°F
Humidity 74%
Altimeter 29.95" Hg
Pressure 1015.3 hPa
Elevation 248
METAR KFWA 151254Z 24010KT 10SM OVC033 M04/M08 A2995 RMK AO2 SLP153 T10441078
Observed Flight Rules
Dec-15 @ 12:54 UTC
(an hour ago)
VFR
Wind Visibility
240° at 10 knots 10 miles
Clouds
  • Overcast at 3,300' AGL
Temperature Dewpoint
-4°C / 25°F -8°C / 18°F
Humidity Altimeter Pressure
74% 29.95" Hg 1015.3 hPa